Time;durP1;ratioP1;P1;durP2;ratioP2;P2;SDS_P1;SDS_P2;PMS_P1;PMS_P2;Temp;Humidity;BMP_temperature;BMP_pressure;BME280_temperature;BME280_humidity;BME280_pressure;Samples;Min_cycle;Max_cycle;Signal;HPM_P1;HPM_P2
2021/12/03 00:00:39;;;;;;;1.40;1.30;;;;;;;;;;4848933;29;33922;-69
2021/12/03 00:03:07;;;;;;;3.47;2.13;;;;;;;;;;4849158;29;32448;-69
2021/12/03 00:05:33;;;;;;;1.58;1.48;;;;;;;;;;4848455;29;32387;-69
2021/12/03 00:08:00;;;;;;;1.55;1.45;;;;;;;;;;4839297;29;32269;-69
2021/12/03 00:10:27;;;;;;;1.52;1.42;;;;;;;;;;4830784;29;32266;-69
2021/12/03 00:12:55;;;;;;;1.60;1.50;;;;;;;;;;4830214;29;34779;-68
2021/12/03 00:15:25;;;;;;;1.40;1.30;;;;;;;;;;4830435;29;32593;-68
2021/12/03 00:17:54;;;;;;;1.67;1.58;;;;;;;;;;4842312;29;32436;-68
2021/12/03 00:20:24;;;;;;;1.35;1.23;;;;;;;;;;4848432;29;32498;-69
2021/12/03 00:22:55;;;;;;;1.40;1.30;;;;;;;;;;4842123;29;36584;-70
2021/12/03 00:25:22;;;;;;;1.60;1.50;;;;;;;;;;4829283;29;32362;-69
2021/12/03 00:27:49;;;;;;;3.30;1.55;;;;;;;;;;4829301;29;32437;-69
2021/12/03 00:30:17;;;;;;;1.80;1.50;;;;;;;;;;4830247;29;32453;-69
2021/12/03 00:32:45;;;;;;;1.35;1.35;;;;;;;;;;4830604;29;32185;-68
2021/12/03 00:35:14;;;;;;;1.48;1.38;;;;;;;;;;4830268;29;34116;-68
2021/12/03 00:37:42;;;;;;;1.30;1.20;;;;;;;;;;4830480;29;32276;-69
2021/12/03 00:40:15;;;;;;;1.70;1.60;;;;;;;;;;4830684;29;32384;-68
2021/12/03 00:42:42;;;;;;;1.17;1.15;;;;;;;;;;4830467;29;32411;-69
2021/12/03 00:45:11;;;;;;;1.35;1.30;;;;;;;;;;4830293;29;35202;-69
2021/12/03 00:47:39;;;;;;;1.27;1.17;;;;;;;;;;4830210;29;32397;-69
2021/12/03 00:50:08;;;;;;;1.25;1.17;;;;;;;;;;4830126;29;32366;-68
2021/12/03 00:52:37;;;;;;;1.17;1.17;;;;;;;;;;4829872;29;32321;-68
2021/12/03 00:55:05;;;;;;;1.55;1.45;;;;;;;;;;4830021;29;32545;-68
2021/12/03 00:57:32;;;;;;;1.40;1.30;;;;;;;;;;4829893;29;34419;-69
2021/12/03 00:59:59;;;;;;;1.58;1.48;;;;;;;;;;4829874;29;32319;-68
2021/12/03 01:02:26;;;;;;;1.55;1.45;;;;;;;;;;4829606;29;32275;-69
2021/12/03 01:04:53;;;;;;;1.85;1.75;;;;;;;;;;4829636;29;32442;-70
2021/12/03 01:07:19;;;;;;;1.60;1.50;;;;;;;;;;4829753;29;35406;-68
2021/12/03 01:09:48;;;;;;;1.50;1.40;;;;;;;;;;4829668;29;32429;-68
2021/12/03 01:12:14;;;;;;;1.83;1.60;;;;;;;;;;4829689;29;32447;-68
2021/12/03 01:14:42;;;;;;;1.50;1.40;;;;;;;;;;4829677;29;32513;-67
2021/12/03 01:17:08;;;;;;;1.80;1.70;;;;;;;;;;4829909;29;32297;-68
2021/12/03 01:19:35;;;;;;;4.25;1.95;;;;;;;;;;4829853;29;32617;-67
2021/12/03 01:22:04;;;;;;;1.90;1.70;;;;;;;;;;4831376;29;32705;-69
2021/12/03 01:24:31;;;;;;;1.80;1.70;;;;;;;;;;4837016;29;32310;-69
2021/12/03 01:27:00;;;;;;;1.92;1.83;;;;;;;;;;4848223;29;32424;-69
2021/12/03 01:29:27;;;;;;;1.92;1.83;;;;;;;;;;4843618;29;35126;-69
2021/12/03 01:31:56;;;;;;;1.88;1.77;;;;;;;;;;4829588;29;32596;-68
2021/12/03 01:34:24;;;;;;;2.17;2.00;;;;;;;;;;4828733;29;32220;-68
2021/12/03 01:36:51;;;;;;;2.33;2.13;;;;;;;;;;4829567;29;32185;-68
2021/12/03 01:39:18;;;;;;;2.35;2.00;;;;;;;;;;4845687;29;32423;-68
2021/12/03 01:41:45;;;;;;;2.08;1.63;;;;;;;;;;4848082;29;32418;-68
2021/12/03 01:44:14;;;;;;;2.50;2.30;;;;;;;;;;4836970;29;32533;-67
2021/12/03 01:46:41;;;;;;;2.40;2.20;;;;;;;;;;4830048;29;32257;-68
2021/12/03 01:49:10;;;;;;;1.98;1.88;;;;;;;;;;4829569;29;32359;-69
2021/12/03 01:51:37;;;;;;;2.22;2.03;;;;;;;;;;4829155;29;35093;-69
2021/12/03 01:54:03;;;;;;;2.13;2.00;;;;;;;;;;4829204;29;32362;-68
2021/12/03 01:56:30;;;;;;;1.95;1.85;;;;;;;;;;4828957;29;32428;-68
2021/12/03 01:58:57;;;;;;;2.20;1.90;;;;;;;;;;4829468;29;32395;-68
2021/12/03 02:01:27;;;;;;;1.90;1.80;;;;;;;;;;4831167;29;32331;-68
2021/12/03 02:03:57;;;;;;;2.17;1.98;;;;;;;;;;4828477;29;32650;-66
2021/12/03 02:06:25;;;;;;;1.95;1.80;;;;;;;;;;4829495;29;32491;-69
2021/12/03 02:08:53;;;;;;;1.95;1.85;;;;;;;;;;4829015;29;32294;-68
2021/12/03 02:11:20;;;;;;;2.60;2.47;;;;;;;;;;4841096;29;32461;-69
2021/12/03 02:13:48;;;;;;;2.45;2.28;;;;;;;;;;4847706;29;35971;-69
2021/12/03 02:16:17;;;;;;;2.22;2.13;;;;;;;;;;4847189;29;32554;-69
2021/12/03 02:18:45;;;;;;;2.45;2.25;;;;;;;;;;4847904;29;32516;-70
2021/12/03 02:21:14;;;;;;;2.25;1.98;;;;;;;;;;4847699;29;32198;-69
2021/12/03 02:23:41;;;;;;;3.22;2.20;;;;;;;;;;4847683;29;32446;-70
2021/12/03 02:26:08;;;;;;;2.35;2.25;;;;;;;;;;4839207;29;32496;-69
2021/12/03 02:28:39;;;;;;;2.42;2.25;;;;;;;;;;4829005;29;32421;-66
2021/12/03 02:31:06;;;;;;;2.88;2.67;;;;;;;;;;4828303;29;32280;-68
2021/12/03 02:33:33;;;;;;;2.60;2.50;;;;;;;;;;4828894;29;32371;-67
2021/12/03 02:36:00;;;;;;;3.72;2.63;;;;;;;;;;4828181;29;34844;-68
2021/12/03 02:38:28;;;;;;;3.10;2.70;;;;;;;;;;4829046;29;32438;-69
2021/12/03 02:40:56;;;;;;;3.55;3.25;;;;;;;;;;4830454;29;32365;-69
2021/12/03 02:43:24;;;;;;;3.67;3.38;;;;;;;;;;4828393;29;32323;-68
2021/12/03 02:45:51;;;;;;;3.53;3.30;;;;;;;;;;4828544;29;32418;-68
2021/12/03 02:48:19;;;;;;;4.07;3.78;;;;;;;;;;4830835;29;32431;-68
2021/12/03 02:50:46;;;;;;;7.28;3.63;;;;;;;;;;4831206;29;32577;-68
2021/12/03 02:53:13;;;;;;;4.45;4.15;;;;;;;;;;4835447;29;32443;-70
2021/12/03 02:55:41;;;;;;;5.15;4.00;;;;;;;;;;4841002;29;32217;-67
2021/12/03 02:58:08;;;;;;;5.88;4.00;;;;;;;;;;4835976;29;35281;-67
2021/12/03 03:00:36;;;;;;;5.00;4.60;;;;;;;;;;4840169;29;32300;-70
2021/12/03 03:03:03;;;;;;;5.78;4.95;;;;;;;;;;4846136;29;32454;-69
2021/12/03 03:05:30;;;;;;;5.38;4.97;;;;;;;;;;4845568;29;32573;-66
2021/12/03 03:07:56;;;;;;;5.90;5.43;;;;;;;;;;4841522;29;32588;-66
2021/12/03 03:10:29;;;;;;;5.28;4.88;;;;;;;;;;4849319;29;32417;-65
2021/12/03 03:12:58;;;;;;;8.20;5.35;;;;;;;;;;4848757;29;32349;-69
2021/12/03 03:15:26;;;;;;;6.47;5.97;;;;;;;;;;4849281;29;32429;-68
2021/12/03 03:17:52;;;;;;;6.18;5.68;;;;;;;;;;4845088;29;32476;-67
2021/12/03 03:20:19;;;;;;;5.88;5.47;;;;;;;;;;4830894;29;35002;-68
2021/12/03 03:22:47;;;;;;;6.57;6.07;;;;;;;;;;4765209;29;32418;-70
2021/12/03 03:25:18;;;;;;;6.45;5.95;;;;;;;;;;4853978;29;32399;-67
2021/12/03 03:27:46;;;;;;;6.68;6.25;;;;;;;;;;4848705;29;32319;-67
2021/12/03 03:30:15;;;;;;;6.55;6.07;;;;;;;;;;4848913;29;33989;-67
2021/12/03 03:32:43;;;;;;;6.63;6.15;;;;;;;;;;4847880;29;32417;-66
2021/12/03 03:35:10;;;;;;;6.70;6.05;;;;;;;;;;4848985;29;32322;-65
2021/12/03 03:37:37;;;;;;;7.53;7.03;;;;;;;;;;4832081;29;32613;-65
2021/12/03 03:40:06;;;;;;;6.82;6.38;;;;;;;;;;4827601;29;32481;-66
2021/12/03 03:42:33;;;;;;;7.18;6.57;;;;;;;;;;4829719;29;33956;-66
2021/12/03 03:45:00;;;;;;;6.32;5.93;;;;;;;;;;4830850;29;32487;-67
2021/12/03 03:47:28;;;;;;;6.82;6.22;;;;;;;;;;4830623;29;32360;-65
2021/12/03 03:49:55;;;;;;;6.47;5.97;;;;;;;;;;4830664;29;32412;-66
2021/12/03 03:52:22;;;;;;;6.28;5.88;;;;;;;;;;4829716;29;34546;-66
2021/12/03 03:54:48;;;;;;;6.78;6.07;;;;;;;;;;4830100;29;32435;-67
2021/12/03 03:57:15;;;;;;;7.40;6.47;;;;;;;;;;4830222;29;32338;-65
2021/12/03 03:59:42;;;;;;;7.13;6.53;;;;;;;;;;4830381;29;32491;-67
2021/12/03 04:02:09;;;;;;;6.25;5.75;;;;;;;;;;4830405;29;32117;-66
2021/12/03 04:04:37;;;;;;;6.72;5.90;;;;;;;;;;4829757;29;34211;-65
2021/12/03 04:07:04;;;;;;;6.57;6.07;;;;;;;;;;4830362;29;32125;-67
2021/12/03 04:09:31;;;;;;;6.20;5.70;;;;;;;;;;4830420;29;32293;-66
2021/12/03 04:11:57;;;;;;;5.90;5.50;;;;;;;;;;4836691;29;32413;-66
2021/12/03 04:14:24;;;;;;;5.72;5.32;;;;;;;;;;4847595;29;34238;-66
2021/12/03 04:16:50;;;;;;;6.10;5.50;;;;;;;;;;4847797;29;32413;-65
2021/12/03 04:19:18;;;;;;;6.30;5.80;;;;;;;;;;4848774;29;32427;-67
2021/12/03 04:21:46;;;;;;;6.22;5.82;;;;;;;;;;4846813;29;33187;-66
2021/12/03 04:24:13;;;;;;;5.63;5.22;;;;;;;;;;4841707;29;32278;-66
2021/12/03 04:26:39;;;;;;;6.30;5.90;;;;;;;;;;4848372;29;35420;-67
2021/12/03 04:29:06;;;;;;;6.22;5.82;;;;;;;;;;4848373;29;32535;-66
2021/12/03 04:31:32;;;;;;;5.97;5.57;;;;;;;;;;4848589;29;32416;-66
2021/12/03 04:33:59;;;;;;;5.68;5.28;;;;;;;;;;4848820;29;32390;-65
2021/12/03 04:36:26;;;;;;;7.05;6.35;;;;;;;;;;4845684;29;34067;-65
2021/12/03 04:38:54;;;;;;;6.30;5.90;;;;;;;;;;4839491;29;32467;-65
2021/12/03 04:41:21;;;;;;;6.38;5.97;;;;;;;;;;4837277;29;32332;-65
2021/12/03 04:43:47;;;;;;;6.03;5.53;;;;;;;;;;4839858;29;32418;-65
2021/12/03 04:46:14;;;;;;;6.72;6.13;;;;;;;;;;4838636;29;32521;-65
2021/12/03 04:48:41;;;;;;;6.10;5.70;;;;;;;;;;4838365;29;34184;-66
2021/12/03 04:51:08;;;;;;;5.35;4.95;;;;;;;;;;4837478;29;32529;-66
2021/12/03 04:53:35;;;;;;;5.97;5.47;;;;;;;;;;4838622;29;32425;-66
2021/12/03 04:56:04;;;;;;;5.72;5.32;;;;;;;;;;4842163;29;32487;-66
2021/12/03 04:58:30;;;;;;;6.22;5.82;;;;;;;;;;4837888;29;34042;-65
2021/12/03 05:00:58;;;;;;;5.60;5.20;;;;;;;;;;4839903;29;32541;-65
2021/12/03 05:03:26;;;;;;;5.40;5.00;;;;;;;;;;4837599;29;32264;-65
2021/12/03 05:05:56;;;;;;;6.25;5.85;;;;;;;;;;4840870;29;33215;-65
2021/12/03 05:08:27;;;;;;;6.13;5.63;;;;;;;;;;4829783;29;32353;-65
2021/12/03 05:10:55;;;;;;;5.63;5.23;;;;;;;;;;4844110;29;34097;-65
2021/12/03 05:13:25;;;;;;;6.18;5.78;;;;;;;;;;4838079;29;32496;-66
2021/12/03 05:15:52;;;;;;;5.68;5.28;;;;;;;;;;4839070;29;32380;-65
2021/12/03 05:18:22;;;;;;;5.43;5.13;;;;;;;;;;4828061;29;32691;-66
2021/12/03 05:20:51;;;;;;;6.15;5.75;;;;;;;;;;4836831;29;34447;-65
2021/12/03 05:23:18;;;;;;;5.57;5.18;;;;;;;;;;4840275;29;32557;-64
2021/12/03 05:25:45;;;;;;;6.15;5.68;;;;;;;;;;4829503;29;32231;-65
2021/12/03 05:28:12;;;;;;;4.95;4.65;;;;;;;;;;4842312;29;32220;-64
2021/12/03 05:30:40;;;;;;;4.22;3.92;;;;;;;;;;4846880;29;32446;-67
2021/12/03 05:33:08;;;;;;;5.05;4.75;;;;;;;;;;4673623;29;34233;-67
2021/12/03 05:35:35;;;;;;;5.07;4.78;;;;;;;;;;4810467;29;33053;-68
2021/12/03 05:38:03;;;;;;;5.35;4.95;;;;;;;;;;4818380;29;32428;-67
2021/12/03 05:40:30;;;;;;;6.55;5.70;;;;;;;;;;4826138;29;32910;-67
2021/12/03 05:42:57;;;;;;;6.07;5.68;;;;;;;;;;4280393;29;34663;-66
2021/12/03 05:45:27;;;;;;;5.75;5.32;;;;;;;;;;4684235;29;32391;-67
2021/12/03 05:47:56;;;;;;;6.40;5.90;;;;;;;;;;4839287;29;32214;-67
2021/12/03 05:50:23;;;;;;;6.32;5.93;;;;;;;;;;4830666;29;32437;-67
2021/12/03 05:52:51;;;;;;;5.70;5.30;;;;;;;;;;4837418;29;32355;-68
2021/12/03 05:55:19;;;;;;;5.80;5.38;;;;;;;;;;4844897;29;35708;-67
2021/12/03 05:57:46;;;;;;;6.22;5.82;;;;;;;;;;4837629;29;32465;-68
2021/12/03 06:00:16;;;;;;;6.00;5.60;;;;;;;;;;4840996;29;32453;-68
2021/12/03 06:02:44;;;;;;;5.45;5.15;;;;;;;;;;4844813;29;32516;-69
2021/12/03 06:05:14;;;;;;;5.97;5.63;;;;;;;;;;4843283;29;34723;-67
2021/12/03 06:07:41;;;;;;;5.97;5.57;;;;;;;;;;4846839;29;32474;-68
2021/12/03 06:10:08;;;;;;;5.88;5.47;;;;;;;;;;4838249;29;32460;-68
2021/12/03 06:12:35;;;;;;;5.35;5.03;;;;;;;;;;4836960;29;33983;-67
2021/12/03 06:15:02;;;;;;;5.70;5.30;;;;;;;;;;4847290;29;32424;-67
2021/12/03 06:17:29;;;;;;;5.63;5.32;;;;;;;;;;4840399;29;34671;-65
2021/12/03 06:19:56;;;;;;;5.80;5.40;;;;;;;;;;4845640;29;32541;-66
2021/12/03 06:22:24;;;;;;;5.65;5.25;;;;;;;;;;4836440;29;32446;-65
2021/12/03 06:24:50;;;;;;;5.53;5.13;;;;;;;;;;4832201;29;32827;-67
2021/12/03 06:27:17;;;;;;;5.50;5.20;;;;;;;;;;4836372;29;35018;-67
2021/12/03 06:29:44;;;;;;;6.45;5.57;;;;;;;;;;4848018;29;32551;-66
2021/12/03 06:32:11;;;;;;;5.97;5.57;;;;;;;;;;4849144;29;32522;-68
2021/12/03 06:34:37;;;;;;;5.80;5.40;;;;;;;;;;4842065;29;32330;-68
2021/12/03 06:37:05;;;;;;;6.13;5.72;;;;;;;;;;4844740;29;32154;-68
2021/12/03 06:39:33;;;;;;;5.70;5.30;;;;;;;;;;4848658;29;35419;-67
2021/12/03 06:42:00;;;;;;;5.78;5.38;;;;;;;;;;4848160;29;32476;-67
2021/12/03 06:44:26;;;;;;;24.67;7.00;;;;;;;;;;4845512;29;32283;-66
2021/12/03 06:46:53;;;;;;;7.40;6.70;;;;;;;;;;4844136;29;32339;-66
2021/12/03 06:49:20;;;;;;;7.00;6.40;;;;;;;;;;4846191;29;34090;-67
2021/12/03 06:51:48;;;;;;;12.45;5.95;;;;;;;;;;4846312;29;33183;-66
2021/12/03 06:54:24;;;;;;;10.40;6.10;;;;;;;;;;4846489;29;33129;-68
2021/12/03 06:56:52;;;;;;;8.43;7.40;;;;;;;;;;4841020;29;32882;-68
2021/12/03 06:59:21;;;;;;;6.30;5.70;;;;;;;;;;4840435;29;32535;-66
2021/12/03 07:01:47;;;;;;;6.03;5.53;;;;;;;;;;4839141;29;34127;-66
2021/12/03 07:04:14;;;;;;;6.57;6.05;;;;;;;;;;4838088;29;32626;-66
2021/12/03 07:06:41;;;;;;;6.15;5.75;;;;;;;;;;4839610;29;32495;-68
2021/12/03 07:09:08;;;;;;;6.88;6.28;;;;;;;;;;4838692;29;32387;-67
2021/12/03 07:11:35;;;;;;;6.55;6.15;;;;;;;;;;4837654;29;34153;-67
2021/12/03 07:14:03;;;;;;;6.40;5.50;;;;;;;;;;4837419;29;32601;-67
2021/12/03 07:16:30;;;;;;;6.40;6.00;;;;;;;;;;4839209;29;32474;-65
2021/12/03 07:18:57;;;;;;;6.35;5.95;;;;;;;;;;4838813;29;32486;-67
2021/12/03 07:21:24;;;;;;;6.20;5.80;;;;;;;;;;4838825;29;32475;-68
2021/12/03 07:23:51;;;;;;;6.28;5.88;;;;;;;;;;4837437;29;35020;-67
2021/12/03 07:26:18;;;;;;;6.35;5.88;;;;;;;;;;4836616;29;32347;-67
2021/12/03 07:28:45;;;;;;;6.47;6.07;;;;;;;;;;4830193;29;32522;-68
2021/12/03 07:31:14;;;;;;;6.60;6.20;;;;;;;;;;4835919;29;32639;-66
2021/12/03 07:33:41;;;;;;;6.85;6.25;;;;;;;;;;4837075;29;36097;-65
2021/12/03 07:36:08;;;;;;;7.18;6.47;;;;;;;;;;4837718;29;32543;-69
2021/12/03 07:38:36;;;;;;;6.68;6.20;;;;;;;;;;4838127;29;32297;-67
2021/12/03 07:41:03;;;;;;;6.68;6.28;;;;;;;;;;4837623;29;33060;-66
2021/12/03 07:43:31;;;;;;;7.53;7.03;;;;;;;;;;4838571;29;32343;-67
2021/12/03 07:45:58;;;;;;;7.18;6.72;;;;;;;;;;4837182;29;34666;-66
2021/12/03 07:48:26;;;;;;;7.15;6.65;;;;;;;;;;4838801;29;33174;-67
2021/12/03 07:50:55;;;;;;;7.18;6.70;;;;;;;;;;4839114;29;32635;-66
2021/12/03 07:53:22;;;;;;;6.63;6.15;;;;;;;;;;4837957;29;32407;-67
2021/12/03 07:55:50;;;;;;;48.28;16.75;;;;;;;;;;4838859;29;33935;-66
2021/12/03 07:58:18;;;;;;;37.88;15.75;;;;;;;;;;4838425;29;32592;-66
2021/12/03 08:00:45;;;;;;;34.40;14.88;;;;;;;;;;4836844;29;32687;-68
2021/12/03 08:03:13;;;;;;;30.85;14.57;;;;;;;;;;4849331;29;32629;-67
2021/12/03 08:05:41;;;;;;;29.73;12.75;;;;;;;;;;4835298;29;32471;-67
2021/12/03 08:08:07;;;;;;;21.92;12.52;;;;;;;;;;4838295;29;34245;-67
2021/12/03 08:10:35;;;;;;;20.38;10.75;;;;;;;;;;4838369;29;32380;-67
2021/12/03 08:13:02;;;;;;;15.52;9.70;;;;;;;;;;4833752;29;32624;-66
2021/12/03 08:15:30;;;;;;;10.77;9.13;;;;;;;;;;4837656;29;32652;-67
2021/12/03 08:17:56;;;;;;;11.73;8.65;;;;;;;;;;4840766;29;34084;-67
2021/12/03 08:20:23;;;;;;;11.68;8.93;;;;;;;;;;4836324;29;32631;-66
2021/12/03 08:22:51;;;;;;;9.60;8.43;;;;;;;;;;4837042;29;32387;-66
2021/12/03 08:25:18;;;;;;;8.98;8.23;;;;;;;;;;4835855;29;32569;-67
2021/12/03 08:27:45;;;;;;;8.70;7.97;;;;;;;;;;4839102;29;32291;-67
2021/12/03 08:30:13;;;;;;;8.70;7.93;;;;;;;;;;4838208;29;34996;-66
2021/12/03 08:32:42;;;;;;;7.43;6.90;;;;;;;;;;4835255;29;32537;-68
2021/12/03 08:35:09;;;;;;;8.27;7.57;;;;;;;;;;4840307;29;32604;-67
2021/12/03 08:37:37;;;;;;;9.02;8.27;;;;;;;;;;4839327;29;32313;-66
2021/12/03 08:40:07;;;;;;;9.38;8.57;;;;;;;;;;4835356;29;33960;-67
2021/12/03 08:42:34;;;;;;;11.68;10.15;;;;;;;;;;4839826;29;32668;-68
2021/12/03 08:45:03;;;;;;;15.57;11.32;;;;;;;;;;4838015;29;32655;-67
2021/12/03 08:47:30;;;;;;;13.05;11.02;;;;;;;;;;4840448;29;32612;-66
2021/12/03 08:49:57;;;;;;;11.40;10.30;;;;;;;;;;4840744;29;32419;-67
2021/12/03 08:52:33;;;;;;;14.98;10.77;;;;;;;;;;4837677;29;34698;-66
2021/12/03 08:55:00;;;;;;;12.98;11.05;;;;;;;;;;4839921;29;32512;-68
2021/12/03 08:57:30;;;;;;;11.77;10.50;;;;;;;;;;4840893;29;33049;-66
2021/12/03 09:00:01;;;;;;;12.15;10.68;;;;;;;;;;4838525;29;32521;-66
2021/12/03 09:02:28;;;;;;;18.13;12.82;;;;;;;;;;4719195;29;34154;-67
2021/12/03 09:04:54;;;;;;;12.63;11.38;;;;;;;;;;4839046;29;32586;-68
2021/12/03 09:07:21;;;;;;;19.42;13.80;;;;;;;;;;4839143;29;32460;-67
2021/12/03 09:09:48;;;;;;;29.95;15.55;;;;;;;;;;4838593;29;32982;-68
2021/12/03 09:12:15;;;;;;;28.20;15.32;;;;;;;;;;4838771;29;32571;-69
2021/12/03 09:14:49;;;;;;;28.20;15.13;;;;;;;;;;4838290;29;35108;-68
2021/12/03 09:20:23;;;;;;;23.00;12.93;;;;;;;;;;4839253;29;32625;-68
2021/12/03 09:22:52;;;;;;;24.42;13.02;;;;;;;;;;4839619;29;32517;-69
2021/12/03 09:25:46;;;;;;;20.95;12.82;;;;;;;;;;4837911;29;34742;-68
2021/12/03 09:28:12;;;;;;;14.35;12.63;;;;;;;;;;4840413;29;32515;-69
2021/12/03 09:30:43;;;;;;;15.60;12.38;;;;;;;;;;4838474;29;32397;-68
2021/12/03 09:33:13;;;;;;;14.55;12.05;;;;;;;;;;4839922;29;32493;-69
2021/12/03 09:35:50;;;;;;;14.63;13.00;;;;;;;;;;4840381;29;32531;-69
2021/12/03 09:38:16;;;;;;;13.73;12.32;;;;;;;;;;4839863;29;35595;-69
2021/12/03 09:40:43;;;;;;;12.38;11.15;;;;;;;;;;4837659;29;32896;-68
2021/12/03 09:43:10;;;;;;;18.27;12.18;;;;;;;;;;4840654;29;32612;-69
2021/12/03 09:45:38;;;;;;;13.35;11.63;;;;;;;;;;4840183;29;32558;-69
2021/12/03 09:48:28;;;;;;;17.33;12.25;;;;;;;;;;4837273;29;35011;-69
2021/12/03 09:50:55;;;;;;;14.52;11.00;;;;;;;;;;4840932;29;32906;-68
2021/12/03 09:55:51;;;;;;;13.50;11.43;;;;;;;;;;4838136;29;32446;-70
2021/12/03 10:41:37;;;;;;;12.45;11.52;;;;;;;;;;4837992;29;32475;-69
2021/12/03 10:44:12;;;;;;;12.23;11.23;;;;;;;;;;4838229;29;32461;-69
2021/12/03 10:46:50;;;;;;;13.70;12.50;;;;;;;;;;4838100;29;32841;-68
2021/12/03 11:27:21;;;;;;;13.10;12.00;;;;;;;;;;4840110;29;32422;-68
2021/12/03 13:01:12;;;;;;;11.95;10.93;;;;;;;;;;4801043;29;32537;-69
2021/12/03 14:00:13;;;;;;;11.70;10.80;;;;;;;;;;4839837;29;32440;-68
2021/12/03 14:34:13;;;;;;;11.93;11.02;;;;;;;;;;4838079;29;32427;-67
2021/12/03 14:43:23;;;;;;;11.85;11.00;;;;;;;;;;4841129;29;32802;-68
2021/12/03 14:49:05;;;;;;;11.75;10.63;;;;;;;;;;4840511;29;32468;-68
2021/12/03 14:51:47;;;;;;;11.65;10.57;;;;;;;;;;4841288;29;35387;-68
2021/12/03 14:57:40;;;;;;;11.35;10.55;;;;;;;;;;4844651;29;33148;-68
2021/12/03 15:25:44;;;;;;;9.15;8.40;;;;;;;;;;4818070;29;32586;-66
2021/12/03 15:28:11;;;;;;;10.18;8.57;;;;;;;;;;4821298;28;32546;-65
2021/12/03 15:30:54;;;;;;;9.93;8.98;;;;;;;;;;4668436;29;44390;-65
2021/12/03 16:51:45;;;;;;;12.43;11.32;;;;;;;;;;4808856;29;34629;-67
2021/12/03 16:55:00;;;;;;;13.40;12.25;;;;;;;;;;4809203;29;32630;-67
2021/12/03 16:57:01;;;;;;;11.32;10.48;;;;;;;;;;4794081;29;32527;-68
2021/12/03 16:59:27;;;;;;;11.65;10.73;;;;;;;;;;4809082;29;32523;-66
2021/12/03 17:02:07;;;;;;;13.02;11.73;;;;;;;;;;4805463;29;32610;-68
2021/12/03 17:13:02;;;;;;;13.18;11.55;;;;;;;;;;4782332;29;32505;-69
2021/12/03 17:31:50;;;;;;;101.97;39.65;;;;;;;;;;4809415;29;32496;-65
2021/12/03 17:48:11;;;;;;;51.20;25.20;;;;;;;;;;4821628;29;32687;-65
2021/12/03 17:51:06;;;;;;;39.38;21.40;;;;;;;;;;4827222;29;32371;-69
2021/12/03 17:53:44;;;;;;;37.08;20.52;;;;;;;;;;4823040;29;34770;-68
2021/12/03 17:58:44;;;;;;;34.75;19.48;;;;;;;;;;4825892;29;32568;-65
2021/12/03 18:04:25;;;;;;;24.20;18.33;;;;;;;;;;4744035;29;34639;-67
2021/12/03 18:07:06;;;;;;;25.33;17.67;;;;;;;;;;4814769;29;32315;-68
2021/12/03 18:17:36;;;;;;;17.23;15.60;;;;;;;;;;4827377;29;34461;-67
2021/12/03 18:48:52;;;;;;;14.77;13.52;;;;;;;;;;4827582;29;32377;-64
2021/12/03 18:55:47;;;;;;;13.63;12.52;;;;;;;;;;4827753;29;32331;-65
2021/12/03 18:58:15;;;;;;;13.85;12.77;;;;;;;;;;4828197;29;32373;-67
2021/12/03 19:00:46;;;;;;;14.52;13.20;;;;;;;;;;4827368;29;32444;-67
2021/12/03 19:11:07;;;;;;;84.38;34.78;;;;;;;;;;4827549;29;32466;-64
2021/12/03 19:13:38;;;;;;;81.57;28.52;;;;;;;;;;4828020;29;32343;-65
2021/12/03 19:16:08;;;;;;;50.17;23.25;;;;;;;;;;4827633;29;34745;-66
2021/12/03 19:18:37;;;;;;;55.22;24.10;;;;;;;;;;4827847;29;32340;-65
2021/12/03 19:21:09;;;;;;;47.13;23.17;;;;;;;;;;4827431;29;32663;-65
2021/12/03 19:23:35;;;;;;;46.25;20.92;;;;;;;;;;4827501;29;32328;-65
2021/12/03 19:26:03;;;;;;;43.38;21.27;;;;;;;;;;4827785;29;32448;-66
2021/12/03 19:28:31;;;;;;;38.83;18.95;;;;;;;;;;4827970;29;35232;-66
2021/12/03 19:30:59;;;;;;;27.60;17.10;;;;;;;;;;4829796;29;32700;-66
2021/12/03 19:33:26;;;;;;;29.35;17.15;;;;;;;;;;4830136;29;32350;-65
2021/12/03 19:35:55;;;;;;;24.17;14.60;;;;;;;;;;4831098;29;32434;-66
2021/12/03 19:38:21;;;;;;;25.42;15.00;;;;;;;;;;4829763;29;34039;-65
2021/12/03 19:43:43;;;;;;;16.65;12.55;;;;;;;;;;4802402;29;32616;-65
2021/12/03 19:46:14;;;;;;;12.65;11.43;;;;;;;;;;4829821;29;32322;-65
2021/12/03 19:48:50;;;;;;;12.57;11.35;;;;;;;;;;4830256;29;32219;-66
2021/12/03 19:51:20;;;;;;;10.38;9.60;;;;;;;;;;4830277;29;35458;-65
2021/12/03 19:56:16;;;;;;;11.43;10.27;;;;;;;;;;4829826;29;32193;-64
2021/12/03 19:58:43;;;;;;;10.57;9.88;;;;;;;;;;4830409;29;32418;-65
2021/12/03 20:01:10;;;;;;;9.73;8.98;;;;;;;;;;4825960;29;34188;-66
2021/12/03 20:03:36;;;;;;;10.63;9.82;;;;;;;;;;4829914;29;32339;-64
2021/12/03 20:06:03;;;;;;;10.40;9.40;;;;;;;;;;4829760;29;32422;-64
2021/12/03 20:08:34;;;;;;;10.82;9.82;;;;;;;;;;4829782;29;32303;-64
2021/12/03 20:11:07;;;;;;;10.77;9.73;;;;;;;;;;4830562;29;32233;-64
2021/12/03 20:13:33;;;;;;;10.73;9.88;;;;;;;;;;4830296;29;34253;-64
2021/12/03 20:18:50;;;;;;;11.27;10.23;;;;;;;;;;4830425;29;32413;-65
2021/12/03 20:21:18;;;;;;;;;;;;;;;;;;4830235;29;32271;-64
2021/12/03 20:32:10;;;;;;;10.68;9.82;;;;;;;;;;4735817;29;32312;-64
2021/12/03 20:37:16;;;;;;;9.98;9.25;;;;;;;;;;4829598;29;36763;-64
2021/12/03 20:39:45;;;;;;;10.65;9.73;;;;;;;;;;4829655;29;32622;-66
2021/12/03 20:52:44;;;;;;;12.02;10.80;;;;;;;;;;4829241;29;32473;-67
2021/12/03 21:08:09;;;;;;;11.18;9.38;;;;;;;;;;4829648;29;32293;-65
2021/12/03 21:10:45;;;;;;;11.85;9.68;;;;;;;;;;4811139;29;34674;-66
2021/12/03 21:13:21;;;;;;;11.65;9.18;;;;;;;;;;4811204;29;32404;-66
2021/12/03 21:23:33;;;;;;;9.70;8.68;;;;;;;;;;4810341;29;34610;-66
2021/12/03 21:26:02;;;;;;;13.00;8.55;;;;;;;;;;4811336;29;32419;-67
2021/12/03 21:39:20;;;;;;;7.57;7.07;;;;;;;;;;4810947;29;32364;-66
2021/12/03 21:41:49;;;;;;;7.82;7.05;;;;;;;;;;4810506;29;32400;-68
2021/12/03 21:44:17;;;;;;;7.43;6.93;;;;;;;;;;4810444;29;32365;-66
2021/12/03 21:46:43;;;;;;;7.43;6.93;;;;;;;;;;4810168;29;34114;-68
2021/12/03 21:49:12;;;;;;;8.63;6.95;;;;;;;;;;4810541;29;32470;-67
2021/12/03 21:51:40;;;;;;;7.20;6.70;;;;;;;;;;4809551;29;32357;-67
2021/12/03 21:54:07;;;;;;;6.57;6.07;;;;;;;;;;4810458;29;32395;-67
2021/12/03 21:56:33;;;;;;;8.63;6.20;;;;;;;;;;4810806;29;34100;-67
2021/12/03 21:59:02;;;;;;;6.47;5.82;;;;;;;;;;4809810;29;32240;-67
2021/12/03 22:01:30;;;;;;;6.38;5.88;;;;;;;;;;4809812;29;32497;-66
2021/12/03 22:03:57;;;;;;;5.88;5.47;;;;;;;;;;4810204;29;32635;-66
2021/12/03 22:06:28;;;;;;;5.85;5.18;;;;;;;;;;4809503;29;32377;-66
2021/12/03 22:08:56;;;;;;;6.03;5.30;;;;;;;;;;4810628;29;35910;-66
2021/12/03 22:11:23;;;;;;;5.35;4.88;;;;;;;;;;4814170;29;32461;-66
2021/12/03 22:13:50;;;;;;;5.28;4.88;;;;;;;;;;4828258;29;32981;-67
2021/12/03 22:16:19;;;;;;;6.80;5.28;;;;;;;;;;4829021;29;32391;-66
2021/12/03 22:18:48;;;;;;;5.03;4.60;;;;;;;;;;4828879;29;35474;-66
2021/12/03 22:21:16;;;;;;;5.15;4.75;;;;;;;;;;4828458;29;32501;-66
2021/12/03 22:23:43;;;;;;;6.47;4.78;;;;;;;;;;4828775;29;32351;-66
2021/12/03 22:26:11;;;;;;;6.47;4.78;;;;;;;;;;4812058;29;32362;-67
2021/12/03 22:28:38;;;;;;;4.88;4.47;;;;;;;;;;4828845;29;32435;-67
2021/12/03 22:31:06;;;;;;;4.85;4.03;;;;;;;;;;4828865;29;34045;-67
2021/12/03 22:33:34;;;;;;;4.25;3.95;;;;;;;;;;4829104;29;32278;-67
2021/12/03 22:36:01;;;;;;;4.38;3.97;;;;;;;;;;4828131;29;32562;-67
2021/12/03 22:38:28;;;;;;;4.38;3.97;;;;;;;;;;4828493;29;32418;-66
2021/12/03 22:40:54;;;;;;;4.28;3.88;;;;;;;;;;4809511;29;34772;-67
2021/12/03 22:43:21;;;;;;;4.07;3.78;;;;;;;;;;4809823;29;32329;-66
2021/12/03 22:46:03;;;;;;;3.83;3.53;;;;;;;;;;4809981;29;32082;-67
2021/12/03 22:53:40;;;;;;;5.28;3.53;;;;;;;;;;4810127;29;35546;-66
2021/12/03 22:56:08;;;;;;;3.95;3.45;;;;;;;;;;4810354;29;32355;-67
2021/12/03 22:58:35;;;;;;;6.03;3.58;;;;;;;;;;4809396;29;32395;-67
2021/12/03 23:01:04;;;;;;;4.32;2.97;;;;;;;;;;4810011;29;32330;-66
2021/12/03 23:03:33;;;;;;;3.67;3.35;;;;;;;;;;4810095;29;34834;-67
2021/12/03 23:06:03;;;;;;;3.83;3.50;;;;;;;;;;4812360;29;32623;-67
2021/12/03 23:08:31;;;;;;;4.45;3.83;;;;;;;;;;4812951;29;32316;-68
2021/12/03 23:10:59;;;;;;;3.53;3.22;;;;;;;;;;4812538;29;32344;-68
2021/12/03 23:13:27;;;;;;;3.80;3.50;;;;;;;;;;4809511;29;32377;-66
2021/12/03 23:15:55;;;;;;;3.70;3.40;;;;;;;;;;4830568;29;34162;-68
2021/12/03 23:18:22;;;;;;;3.53;3.22;;;;;;;;;;4831086;29;32410;-68
2021/12/03 23:20:52;;;;;;;4.47;3.00;;;;;;;;;;4825904;29;32254;-67
2021/12/03 23:23:21;;;;;;;3.85;3.45;;;;;;;;;;4830975;29;32208;-67
2021/12/03 23:25:52;;;;;;;3.58;3.28;;;;;;;;;;4830821;29;34324;-65
2021/12/03 23:28:21;;;;;;;3.88;3.05;;;;;;;;;;4830840;29;32397;-66
2021/12/03 23:30:48;;;;;;;4.85;3.75;;;;;;;;;;4830940;29;32457;-65
2021/12/03 23:33:17;;;;;;;3.35;3.15;;;;;;;;;;4830476;29;32341;-66
2021/12/03 23:35:46;;;;;;;3.10;2.90;;;;;;;;;;4830623;29;32094;-66
2021/12/03 23:38:13;;;;;;;3.08;2.88;;;;;;;;;;4831062;29;32373;-66
2021/12/03 23:40:41;;;;;;;3.78;3.45;;;;;;;;;;4830546;29;32428;-67
2021/12/03 23:43:08;;;;;;;3.45;3.22;;;;;;;;;;4830223;29;32388;-66
2021/12/03 23:45:36;;;;;;;3.20;2.95;;;;;;;;;;4830936;29;32442;-66